sensor_id;sensor_type;location;lat;lon;timestamp;temperature;humidity
59307;DHT22;47983;53.016;-2.260;2023-06-10T00:00:00;13.90;99.90
59307;DHT22;47983;53.016;-2.260;2023-06-10T00:02:39;13.80;99.90
59307;DHT22;47983;53.016;-2.260;2023-06-10T00:05:08;13.80;99.90
59307;DHT22;47983;53.016;-2.260;2023-06-10T00:07:38;13.70;99.90
59307;DHT22;47983;53.016;-2.260;2023-06-10T00:10:08;13.70;99.90
59307;DHT22;47983;53.016;-2.260;2023-06-10T00:12:38;13.60;99.90
59307;DHT22;47983;53.016;-2.260;2023-06-10T00:15:08;13.70;99.90
59307;DHT22;47983;53.016;-2.260;2023-06-10T00:17:36;13.60;99.90
59307;DHT22;47983;53.016;-2.260;2023-06-10T00:20:09;13.60;99.90
59307;DHT22;47983;53.016;-2.260;2023-06-10T00:22:40;13.50;99.90
59307;DHT22;47983;53.016;-2.260;2023-06-10T00:25:10;13.60;99.90
59307;DHT22;47983;53.016;-2.260;2023-06-10T00:27:38;13.50;99.90
59307;DHT22;47983;53.016;-2.260;2023-06-10T00:30:07;13.50;99.90
59307;DHT22;47983;53.016;-2.260;2023-06-10T00:32:36;13.50;99.90
59307;DHT22;47983;53.016;-2.260;2023-06-10T00:35:05;13.40;99.90
59307;DHT22;47983;53.016;-2.260;2023-06-10T00:37:34;13.40;99.90
59307;DHT22;47983;53.016;-2.260;2023-06-10T00:40:04;13.40;99.90
59307;DHT22;47983;53.016;-2.260;2023-06-10T00:42:33;13.40;99.90
59307;DHT22;47983;53.016;-2.260;2023-06-10T00:45:01;13.30;99.90
59307;DHT22;47983;53.016;-2.260;2023-06-10T00:47:30;13.30;99.90
59307;DHT22;47983;53.016;-2.260;2023-06-10T00:49:59;12.50;99.90
59307;DHT22;47983;53.016;-2.260;2023-06-10T00:52:28;13.30;99.90
59307;DHT22;47983;53.016;-2.260;2023-06-10T00:54:57;13.20;99.90
59307;DHT22;47983;53.016;-2.260;2023-06-10T00:57:27;13.20;99.90
59307;DHT22;47983;53.016;-2.260;2023-06-10T00:59:55;13.10;99.90
59307;DHT22;47983;53.016;-2.260;2023-06-10T01:02:23;13.20;99.90
59307;DHT22;47983;53.016;-2.260;2023-06-10T01:04:51;13.10;99.90
59307;DHT22;47983;53.016;-2.260;2023-06-10T01:07:33;13.10;99.90
59307;DHT22;47983;53.016;-2.260;2023-06-10T01:15:17;13.10;99.90
59307;DHT22;47983;53.016;-2.260;2023-06-10T01:18:15;13.00;99.90
59307;DHT22;47983;53.016;-2.260;2023-06-10T01:20:44;13.00;99.90
59307;DHT22;47983;53.016;-2.260;2023-06-10T01:23:15;13.10;99.90
59307;DHT22;47983;53.016;-2.260;2023-06-10T01:26:09;13.00;99.90
59307;DHT22;47983;53.016;-2.260;2023-06-10T01:28:49;13.00;99.90
59307;DHT22;47983;53.016;-2.260;2023-06-10T01:31:42;13.00;99.90
59307;DHT22;47983;53.016;-2.260;2023-06-10T01:34:14;13.00;99.90
59307;DHT22;47983;53.016;-2.260;2023-06-10T01:36:47;13.00;99.90
59307;DHT22;47983;53.016;-2.260;2023-06-10T01:39:16;12.90;99.90
59307;DHT22;47983;53.016;-2.260;2023-06-10T01:41:45;12.90;99.90
59307;DHT22;47983;53.016;-2.260;2023-06-10T01:44:21;12.90;99.90
59307;DHT22;47983;53.016;-2.260;2023-06-10T01:46:49;12.80;99.90
59307;DHT22;47983;53.016;-2.260;2023-06-10T01:49:17;12.80;99.90
59307;DHT22;47983;53.016;-2.260;2023-06-10T01:54:13;12.70;99.90
59307;DHT22;47983;53.016;-2.260;2023-06-10T01:56:41;12.70;99.90
59307;DHT22;47983;53.016;-2.260;2023-06-10T01:59:09;12.70;99.90
59307;DHT22;47983;53.016;-2.260;2023-06-10T02:01:37;12.60;99.90
59307;DHT22;47983;53.016;-2.260;2023-06-10T02:04:05;12.60;99.90
59307;DHT22;47983;53.016;-2.260;2023-06-10T02:06:34;12.50;99.90
59307;DHT22;47983;53.016;-2.260;2023-06-10T02:09:03;12.50;99.90
59307;DHT22;47983;53.016;-2.260;2023-06-10T02:11:31;12.40;99.90
59307;DHT22;47983;53.016;-2.260;2023-06-10T02:13:59;12.40;99.90
59307;DHT22;47983;53.016;-2.260;2023-06-10T02:16:27;12.40;99.90
59307;DHT22;47983;53.016;-2.260;2023-06-10T02:18:55;12.40;99.90
59307;DHT22;47983;53.016;-2.260;2023-06-10T02:21:23;12.40;99.90
59307;DHT22;47983;53.016;-2.260;2023-06-10T02:23:51;12.30;99.90
59307;DHT22;47983;53.016;-2.260;2023-06-10T02:26:19;12.30;99.90
59307;DHT22;47983;53.016;-2.260;2023-06-10T02:28:47;12.30;99.90
59307;DHT22;47983;53.016;-2.260;2023-06-10T02:31:16;12.30;99.90
59307;DHT22;47983;53.016;-2.260;2023-06-10T02:33:45;12.30;99.90
59307;DHT22;47983;53.016;-2.260;2023-06-10T02:36:14;12.20;99.90
59307;DHT22;47983;53.016;-2.260;2023-06-10T02:38:43;12.20;99.90
59307;DHT22;47983;53.016;-2.260;2023-06-10T02:41:12;12.20;99.90
59307;DHT22;47983;53.016;-2.260;2023-06-10T02:43:41;12.20;99.90
59307;DHT22;47983;53.016;-2.260;2023-06-10T02:46:10;12.10;99.90
59307;DHT22;47983;53.016;-2.260;2023-06-10T02:48:42;12.10;99.90
59307;DHT22;47983;53.016;-2.260;2023-06-10T02:51:19;12.10;99.90
59307;DHT22;47983;53.016;-2.260;2023-06-10T02:53:49;12.00;99.90
59307;DHT22;47983;53.016;-2.260;2023-06-10T02:56:18;12.00;99.90
59307;DHT22;47983;53.016;-2.260;2023-06-10T02:58:46;12.00;99.90
59307;DHT22;47983;53.016;-2.260;2023-06-10T03:01:19;12.00;99.90
59307;DHT22;47983;53.016;-2.260;2023-06-10T03:04:06;12.00;99.90
59307;DHT22;47983;53.016;-2.260;2023-06-10T03:06:35;12.00;99.90
59307;DHT22;47983;53.016;-2.260;2023-06-10T03:09:11;12.00;99.90
59307;DHT22;47983;53.016;-2.260;2023-06-10T03:11:41;12.00;99.90
59307;DHT22;47983;53.016;-2.260;2023-06-10T03:14:10;12.00;99.90
59307;DHT22;47983;53.016;-2.260;2023-06-10T03:16:38;12.00;99.90
59307;DHT22;47983;53.016;-2.260;2023-06-10T03:19:10;11.90;99.90
59307;DHT22;47983;53.016;-2.260;2023-06-10T03:21:44;11.90;99.90
59307;DHT22;47983;53.016;-2.260;2023-06-10T03:24:14;11.90;99.90
59307;DHT22;47983;53.016;-2.260;2023-06-10T03:26:43;11.90;99.90
59307;DHT22;47983;53.016;-2.260;2023-06-10T03:29:11;11.90;99.90
59307;DHT22;47983;53.016;-2.260;2023-06-10T03:31:39;11.80;99.90
59307;DHT22;47983;53.016;-2.260;2023-06-10T03:34:07;11.80;99.90
59307;DHT22;47983;53.016;-2.260;2023-06-10T03:36:36;11.80;99.90
59307;DHT22;47983;53.016;-2.260;2023-06-10T03:39:05;11.80;99.90
59307;DHT22;47983;53.016;-2.260;2023-06-10T03:41:34;11.80;99.90
59307;DHT22;47983;53.016;-2.260;2023-06-10T03:44:02;11.80;99.90
59307;DHT22;47983;53.016;-2.260;2023-06-10T03:46:31;11.80;99.90
59307;DHT22;47983;53.016;-2.260;2023-06-10T03:48:59;11.80;99.90
59307;DHT22;47983;53.016;-2.260;2023-06-10T03:51:31;11.80;99.90
59307;DHT22;47983;53.016;-2.260;2023-06-10T03:53:59;11.80;99.90
59307;DHT22;47983;53.016;-2.260;2023-06-10T03:56:27;11.80;99.90
59307;DHT22;47983;53.016;-2.260;2023-06-10T03:58:55;11.80;99.90
59307;DHT22;47983;53.016;-2.260;2023-06-10T04:01:23;11.90;99.90
59307;DHT22;47983;53.016;-2.260;2023-06-10T04:03:51;11.90;99.90
59307;DHT22;47983;53.016;-2.260;2023-06-10T04:06:21;12.00;99.90
59307;DHT22;47983;53.016;-2.260;2023-06-10T04:08:50;12.00;99.90
59307;DHT22;47983;53.016;-2.260;2023-06-10T04:11:18;12.10;99.90
59307;DHT22;47983;53.016;-2.260;2023-06-10T04:13:46;12.10;99.90
59307;DHT22;47983;53.016;-2.260;2023-06-10T04:16:14;12.20;99.90
59307;DHT22;47983;53.016;-2.260;2023-06-10T04:18:43;12.10;99.90
59307;DHT22;47983;53.016;-2.260;2023-06-10T04:21:12;12.20;99.90
59307;DHT22;47983;53.016;-2.260;2023-06-10T04:23:40;12.30;99.90
59307;DHT22;47983;53.016;-2.260;2023-06-10T04:26:10;12.20;99.90
59307;DHT22;47983;53.016;-2.260;2023-06-10T04:28:40;12.20;99.90
59307;DHT22;47983;53.016;-2.260;2023-06-10T04:31:08;12.30;99.90
59307;DHT22;47983;53.016;-2.260;2023-06-10T04:33:38;12.30;99.90
59307;DHT22;47983;53.016;-2.260;2023-06-10T04:36:07;12.30;99.90
59307;DHT22;47983;53.016;-2.260;2023-06-10T04:38:36;12.30;99.90
59307;DHT22;47983;53.016;-2.260;2023-06-10T04:41:04;12.30;99.90
59307;DHT22;47983;53.016;-2.260;2023-06-10T04:43:34;12.30;99.90
59307;DHT22;47983;53.016;-2.260;2023-06-10T04:46:02;12.30;99.90
59307;DHT22;47983;53.016;-2.260;2023-06-10T04:48:33;12.30;99.90
59307;DHT22;47983;53.016;-2.260;2023-06-10T04:51:03;12.30;99.90
59307;DHT22;47983;53.016;-2.260;2023-06-10T04:53:33;12.30;99.90
59307;DHT22;47983;53.016;-2.260;2023-06-10T04:56:00;12.30;99.90
59307;DHT22;47983;53.016;-2.260;2023-06-10T04:58:28;12.30;99.90
59307;DHT22;47983;53.016;-2.260;2023-06-10T05:00:57;12.40;99.90
59307;DHT22;47983;53.016;-2.260;2023-06-10T05:03:25;12.40;99.90
59307;DHT22;47983;53.016;-2.260;2023-06-10T05:05:53;12.40;99.90
59307;DHT22;47983;53.016;-2.260;2023-06-10T05:08:21;12.40;99.90
59307;DHT22;47983;53.016;-2.260;2023-06-10T05:10:49;12.40;99.90
59307;DHT22;47983;53.016;-2.260;2023-06-10T05:13:17;12.40;99.90
59307;DHT22;47983;53.016;-2.260;2023-06-10T05:15:45;12.50;99.90
59307;DHT22;47983;53.016;-2.260;2023-06-10T05:18:14;12.50;99.90
59307;DHT22;47983;53.016;-2.260;2023-06-10T05:20:42;12.60;99.90
59307;DHT22;47983;53.016;-2.260;2023-06-10T05:23:10;12.60;99.90
59307;DHT22;47983;53.016;-2.260;2023-06-10T05:25:37;12.70;99.90
59307;DHT22;47983;53.016;-2.260;2023-06-10T05:28:05;12.70;99.90
59307;DHT22;47983;53.016;-2.260;2023-06-10T05:30:40;12.80;99.90
59307;DHT22;47983;53.016;-2.260;2023-06-10T05:33:08;13.00;99.90
59307;DHT22;47983;53.016;-2.260;2023-06-10T05:35:36;13.00;99.90
59307;DHT22;47983;53.016;-2.260;2023-06-10T05:38:05;13.20;99.90
59307;DHT22;47983;53.016;-2.260;2023-06-10T05:40:33;13.20;99.90
59307;DHT22;47983;53.016;-2.260;2023-06-10T05:43:00;13.30;99.90
59307;DHT22;47983;53.016;-2.260;2023-06-10T05:45:29;13.40;99.90
59307;DHT22;47983;53.016;-2.260;2023-06-10T05:47:57;13.40;99.90
59307;DHT22;47983;53.016;-2.260;2023-06-10T05:50:25;13.50;99.90
59307;DHT22;47983;53.016;-2.260;2023-06-10T05:52:53;12.80;99.90
59307;DHT22;47983;53.016;-2.260;2023-06-10T05:55:22;13.60;99.90
59307;DHT22;47983;53.016;-2.260;2023-06-10T05:57:58;13.70;99.90
59307;DHT22;47983;53.016;-2.260;2023-06-10T06:00:28;13.80;99.90
59307;DHT22;47983;53.016;-2.260;2023-06-10T06:02:55;13.90;99.90
59307;DHT22;47983;53.016;-2.260;2023-06-10T06:05:25;14.00;99.90
59307;DHT22;47983;53.016;-2.260;2023-06-10T06:07:53;14.10;99.90
59307;DHT22;47983;53.016;-2.260;2023-06-10T06:10:20;14.20;99.90
59307;DHT22;47983;53.016;-2.260;2023-06-10T06:12:48;14.20;99.90
59307;DHT22;47983;53.016;-2.260;2023-06-10T06:15:16;14.30;99.90
59307;DHT22;47983;53.016;-2.260;2023-06-10T06:17:44;14.40;99.90
59307;DHT22;47983;53.016;-2.260;2023-06-10T06:20:12;14.50;99.90
59307;DHT22;47983;53.016;-2.260;2023-06-10T06:22:40;14.60;99.90
59307;DHT22;47983;53.016;-2.260;2023-06-10T06:25:08;14.60;99.90
59307;DHT22;47983;53.016;-2.260;2023-06-10T06:27:36;14.70;99.90
59307;DHT22;47983;53.016;-2.260;2023-06-10T06:30:04;14.80;99.90
59307;DHT22;47983;53.016;-2.260;2023-06-10T06:32:33;14.80;99.90
59307;DHT22;47983;53.016;-2.260;2023-06-10T06:35:01;14.80;99.90
59307;DHT22;47983;53.016;-2.260;2023-06-10T06:37:29;14.90;99.90
59307;DHT22;47983;53.016;-2.260;2023-06-10T06:40:18;15.00;99.90
59307;DHT22;47983;53.016;-2.260;2023-06-10T06:42:46;15.00;99.90
59307;DHT22;47983;53.016;-2.260;2023-06-10T06:45:23;15.10;99.90
59307;DHT22;47983;53.016;-2.260;2023-06-10T06:47:52;15.10;99.90
59307;DHT22;47983;53.016;-2.260;2023-06-10T06:50:20;15.10;99.90
59307;DHT22;47983;53.016;-2.260;2023-06-10T06:52:48;15.20;99.90
59307;DHT22;47983;53.016;-2.260;2023-06-10T06:55:16;15.30;99.90
59307;DHT22;47983;53.016;-2.260;2023-06-10T06:57:44;15.30;99.90
59307;DHT22;47983;53.016;-2.260;2023-06-10T07:00:13;15.40;99.90
59307;DHT22;47983;53.016;-2.260;2023-06-10T07:02:41;15.40;99.90
59307;DHT22;47983;53.016;-2.260;2023-06-10T07:05:09;15.50;99.90
59307;DHT22;47983;53.016;-2.260;2023-06-10T07:07:38;15.60;99.90
59307;DHT22;47983;53.016;-2.260;2023-06-10T07:10:09;15.70;99.90
59307;DHT22;47983;53.016;-2.260;2023-06-10T07:12:37;15.80;99.90
59307;DHT22;47983;53.016;-2.260;2023-06-10T07:15:05;15.80;99.90
59307;DHT22;47983;53.016;-2.260;2023-06-10T07:17:33;15.80;99.90
59307;DHT22;47983;53.016;-2.260;2023-06-10T07:20:02;16.00;99.90
59307;DHT22;47983;53.016;-2.260;2023-06-10T07:22:30;16.10;99.90
59307;DHT22;47983;53.016;-2.260;2023-06-10T07:24:58;16.20;99.90
59307;DHT22;47983;53.016;-2.260;2023-06-10T07:27:26;16.20;99.90
59307;DHT22;47983;53.016;-2.260;2023-06-10T07:29:54;16.30;99.90
59307;DHT22;47983;53.016;-2.260;2023-06-10T07:32:22;16.40;99.90
59307;DHT22;47983;53.016;-2.260;2023-06-10T07:34:51;16.50;99.90
59307;DHT22;47983;53.016;-2.260;2023-06-10T07:37:19;16.60;99.90
59307;DHT22;47983;53.016;-2.260;2023-06-10T07:39:47;16.70;99.90
59307;DHT22;47983;53.016;-2.260;2023-06-10T07:42:15;16.90;99.90
59307;DHT22;47983;53.016;-2.260;2023-06-10T07:44:43;16.90;99.90
59307;DHT22;47983;53.016;-2.260;2023-06-10T07:47:11;17.00;99.90
59307;DHT22;47983;53.016;-2.260;2023-06-10T07:49:39;17.10;99.90
59307;DHT22;47983;53.016;-2.260;2023-06-10T07:52:08;17.20;99.90
59307;DHT22;47983;53.016;-2.260;2023-06-10T07:54:36;17.30;99.90
59307;DHT22;47983;53.016;-2.260;2023-06-10T07:57:05;17.40;99.90
59307;DHT22;47983;53.016;-2.260;2023-06-10T07:59:34;17.50;99.90
59307;DHT22;47983;53.016;-2.260;2023-06-10T08:02:02;17.60;99.90
59307;DHT22;47983;53.016;-2.260;2023-06-10T08:04:29;17.60;99.90
59307;DHT22;47983;53.016;-2.260;2023-06-10T08:06:58;17.80;99.90
59307;DHT22;47983;53.016;-2.260;2023-06-10T08:09:26;17.80;99.90
59307;DHT22;47983;53.016;-2.260;2023-06-10T08:11:54;18.00;99.90
59307;DHT22;47983;53.016;-2.260;2023-06-10T08:14:23;18.10;99.90
59307;DHT22;47983;53.016;-2.260;2023-06-10T08:16:51;18.20;99.90
59307;DHT22;47983;53.016;-2.260;2023-06-10T08:19:19;18.30;99.90
59307;DHT22;47983;53.016;-2.260;2023-06-10T08:21:47;18.50;99.90
59307;DHT22;47983;53.016;-2.260;2023-06-10T08:24:14;18.60;99.90
59307;DHT22;47983;53.016;-2.260;2023-06-10T08:26:45;18.80;99.90
59307;DHT22;47983;53.016;-2.260;2023-06-10T08:29:13;19.00;99.90
59307;DHT22;47983;53.016;-2.260;2023-06-10T08:31:43;18.90;99.90
59307;DHT22;47983;53.016;-2.260;2023-06-10T08:34:11;19.00;99.90
59307;DHT22;47983;53.016;-2.260;2023-06-10T08:36:39;19.00;99.90
59307;DHT22;47983;53.016;-2.260;2023-06-10T08:39:08;19.20;99.90
59307;DHT22;47983;53.016;-2.260;2023-06-10T08:41:42;19.40;99.90
59307;DHT22;47983;53.016;-2.260;2023-06-10T08:44:16;19.50;99.90
59307;DHT22;47983;53.016;-2.260;2023-06-10T08:46:47;19.60;99.90
59307;DHT22;47983;53.016;-2.260;2023-06-10T08:49:18;19.70;99.90
59307;DHT22;47983;53.016;-2.260;2023-06-10T08:51:58;19.80;99.90
59307;DHT22;47983;53.016;-2.260;2023-06-10T08:54:32;19.80;99.90
59307;DHT22;47983;53.016;-2.260;2023-06-10T08:57:05;19.90;99.90
59307;DHT22;47983;53.016;-2.260;2023-06-10T08:59:33;20.00;99.90
59307;DHT22;47983;53.016;-2.260;2023-06-10T09:02:02;20.10;99.90
59307;DHT22;47983;53.016;-2.260;2023-06-10T09:04:32;20.20;99.90
59307;DHT22;47983;53.016;-2.260;2023-06-10T09:07:02;20.40;99.90
59307;DHT22;47983;53.016;-2.260;2023-06-10T09:09:30;20.40;99.90
59307;DHT22;47983;53.016;-2.260;2023-06-10T09:11:58;20.50;99.90
59307;DHT22;47983;53.016;-2.260;2023-06-10T09:14:26;20.60;99.90
59307;DHT22;47983;53.016;-2.260;2023-06-10T09:16:55;20.70;99.90
59307;DHT22;47983;53.016;-2.260;2023-06-10T09:19:25;20.80;99.90
59307;DHT22;47983;53.016;-2.260;2023-06-10T09:21:55;21.00;99.90
59307;DHT22;47983;53.016;-2.260;2023-06-10T09:24:23;21.00;99.90
59307;DHT22;47983;53.016;-2.260;2023-06-10T09:27:08;21.10;99.90
59307;DHT22;47983;53.016;-2.260;2023-06-10T09:32:17;21.40;99.90
59307;DHT22;47983;53.016;-2.260;2023-06-10T09:34:47;21.50;99.90
59307;DHT22;47983;53.016;-2.260;2023-06-10T09:37:22;21.60;99.90
59307;DHT22;47983;53.016;-2.260;2023-06-10T09:40:04;21.70;99.90
59307;DHT22;47983;53.016;-2.260;2023-06-10T09:42:34;21.80;99.90
59307;DHT22;47983;53.016;-2.260;2023-06-10T09:45:03;22.00;99.90
59307;DHT22;47983;53.016;-2.260;2023-06-10T09:47:32;22.10;99.90
59307;DHT22;47983;53.016;-2.260;2023-06-10T09:50:00;22.30;99.90
59307;DHT22;47983;53.016;-2.260;2023-06-10T09:52:30;22.30;99.90
59307;DHT22;47983;53.016;-2.260;2023-06-10T09:55:01;22.50;99.90
59307;DHT22;47983;53.016;-2.260;2023-06-10T09:57:32;22.60;99.90
59307;DHT22;47983;53.016;-2.260;2023-06-10T10:00:08;22.80;99.90
59307;DHT22;47983;53.016;-2.260;2023-06-10T10:02:50;22.80;99.90
59307;DHT22;47983;53.016;-2.260;2023-06-10T10:05:21;23.00;99.90
59307;DHT22;47983;53.016;-2.260;2023-06-10T10:07:51;23.10;99.90
59307;DHT22;47983;53.016;-2.260;2023-06-10T10:10:20;23.20;99.90
59307;DHT22;47983;53.016;-2.260;2023-06-10T10:12:55;23.30;99.90
59307;DHT22;47983;53.016;-2.260;2023-06-10T10:15:29;23.50;99.90
59307;DHT22;47983;53.016;-2.260;2023-06-10T10:18:10;23.60;99.90
59307;DHT22;47983;53.016;-2.260;2023-06-10T10:20:46;23.90;99.90
59307;DHT22;47983;53.016;-2.260;2023-06-10T10:23:20;23.90;99.90
59307;DHT22;47983;53.016;-2.260;2023-06-10T10:25:51;24.10;99.90
59307;DHT22;47983;53.016;-2.260;2023-06-10T10:28:24;24.20;99.90
59307;DHT22;47983;53.016;-2.260;2023-06-10T10:30:59;24.30;99.90
59307;DHT22;47983;53.016;-2.260;2023-06-10T10:33:40;24.40;99.90
59307;DHT22;47983;53.016;-2.260;2023-06-10T10:36:08;24.50;99.90
59307;DHT22;47983;53.016;-2.260;2023-06-10T10:38:36;24.50;99.90
59307;DHT22;47983;53.016;-2.260;2023-06-10T10:41:05;24.70;99.90
59307;DHT22;47983;53.016;-2.260;2023-06-10T10:43:34;24.80;99.90
59307;DHT22;47983;53.016;-2.260;2023-06-10T10:46:09;24.90;99.90
59307;DHT22;47983;53.016;-2.260;2023-06-10T10:48:39;25.00;99.90
59307;DHT22;47983;53.016;-2.260;2023-06-10T10:51:09;25.10;99.90
59307;DHT22;47983;53.016;-2.260;2023-06-10T10:53:38;25.20;99.90
59307;DHT22;47983;53.016;-2.260;2023-06-10T10:56:14;25.30;99.90
59307;DHT22;47983;53.016;-2.260;2023-06-10T10:58:42;25.30;99.90
59307;DHT22;47983;53.016;-2.260;2023-06-10T11:01:14;25.30;99.90
59307;DHT22;47983;53.016;-2.260;2023-06-10T11:03:46;25.30;99.90
59307;DHT22;47983;53.016;-2.260;2023-06-10T11:06:17;25.30;99.90
59307;DHT22;47983;53.016;-2.260;2023-06-10T11:08:46;25.40;99.90
59307;DHT22;47983;53.016;-2.260;2023-06-10T11:11:19;25.50;99.90
59307;DHT22;47983;53.016;-2.260;2023-06-10T11:14:27;25.60;99.90
59307;DHT22;47983;53.016;-2.260;2023-06-10T11:16:59;25.70;99.90
59307;DHT22;47983;53.016;-2.260;2023-06-10T11:19:33;25.70;99.80
59307;DHT22;47983;53.016;-2.260;2023-06-10T11:22:06;25.80;99.60
59307;DHT22;47983;53.016;-2.260;2023-06-10T11:24:34;26.00;99.50
59307;DHT22;47983;53.016;-2.260;2023-06-10T11:27:19;26.20;98.30
59307;DHT22;47983;53.016;-2.260;2023-06-10T11:32:34;26.20;97.70
59307;DHT22;47983;53.016;-2.260;2023-06-10T11:35:03;26.20;97.60
59307;DHT22;47983;53.016;-2.260;2023-06-10T11:40:00;26.40;97.70
59307;DHT22;47983;53.016;-2.260;2023-06-10T11:42:28;26.50;97.40
59307;DHT22;47983;53.016;-2.260;2023-06-10T11:44:57;26.70;97.20
59307;DHT22;47983;53.016;-2.260;2023-06-10T11:47:26;26.80;96.80
59307;DHT22;47983;53.016;-2.260;2023-06-10T11:49:57;26.80;96.20
59307;DHT22;47983;53.016;-2.260;2023-06-10T11:52:30;26.90;96.30
59307;DHT22;47983;53.016;-2.260;2023-06-10T11:55:08;27.10;96.50
59307;DHT22;47983;53.016;-2.260;2023-06-10T11:57:38;27.30;96.40
59307;DHT22;47983;53.016;-2.260;2023-06-10T12:00:06;27.50;95.70
59307;DHT22;47983;53.016;-2.260;2023-06-10T12:02:38;27.80;95.10
59307;DHT22;47983;53.016;-2.260;2023-06-10T12:05:13;27.90;94.40
59307;DHT22;47983;53.016;-2.260;2023-06-10T12:07:41;28.10;94.10
59307;DHT22;47983;53.016;-2.260;2023-06-10T12:10:09;28.20;93.70
59307;DHT22;47983;53.016;-2.260;2023-06-10T12:12:54;28.20;93.80
59307;DHT22;47983;53.016;-2.260;2023-06-10T12:15:25;28.40;93.20
59307;DHT22;47983;53.016;-2.260;2023-06-10T12:17:54;28.50;92.60
59307;DHT22;47983;53.016;-2.260;2023-06-10T12:20:27;28.80;92.80
59307;DHT22;47983;53.016;-2.260;2023-06-10T12:25:26;29.20;91.70
59307;DHT22;47983;53.016;-2.260;2023-06-10T12:27:58;29.30;91.30
59307;DHT22;47983;53.016;-2.260;2023-06-10T12:30:26;29.60;90.60
59307;DHT22;47983;53.016;-2.260;2023-06-10T12:32:55;29.60;90.90
59307;DHT22;47983;53.016;-2.260;2023-06-10T12:35:25;29.80;90.80
59307;DHT22;47983;53.016;-2.260;2023-06-10T12:37:58;30.10;90.00
59307;DHT22;47983;53.016;-2.260;2023-06-10T12:40:38;30.20;89.80
59307;DHT22;47983;53.016;-2.260;2023-06-10T12:43:11;30.40;89.00
59307;DHT22;47983;53.016;-2.260;2023-06-10T12:45:40;30.50;88.60
59307;DHT22;47983;53.016;-2.260;2023-06-10T12:48:16;30.80;88.40
59307;DHT22;47983;53.016;-2.260;2023-06-10T12:50:51;31.00;86.40
59307;DHT22;47983;53.016;-2.260;2023-06-10T12:53:20;31.00;86.40
59307;DHT22;47983;53.016;-2.260;2023-06-10T12:55:49;31.10;86.80
59307;DHT22;47983;53.016;-2.260;2023-06-10T12:58:20;31.10;84.90
59307;DHT22;47983;53.016;-2.260;2023-06-10T13:00:49;31.20;85.10
59307;DHT22;47983;53.016;-2.260;2023-06-10T13:03:21;31.30;83.50
59307;DHT22;47983;53.016;-2.260;2023-06-10T13:05:49;31.30;82.10
59307;DHT22;47983;53.016;-2.260;2023-06-10T13:08:17;31.30;83.20
59307;DHT22;47983;53.016;-2.260;2023-06-10T13:10:45;31.40;82.80
59307;DHT22;47983;53.016;-2.260;2023-06-10T13:13:13;31.50;83.10
59307;DHT22;47983;53.016;-2.260;2023-06-10T13:15:41;31.60;81.70
59307;DHT22;47983;53.016;-2.260;2023-06-10T13:18:10;31.70;82.80
59307;DHT22;47983;53.016;-2.260;2023-06-10T13:20:39;31.80;80.60
59307;DHT22;47983;53.016;-2.260;2023-06-10T13:23:07;31.90;80.10
59307;DHT22;47983;53.016;-2.260;2023-06-10T13:25:35;31.90;80.50
59307;DHT22;47983;53.016;-2.260;2023-06-10T13:28:03;31.90;78.60
59307;DHT22;47983;53.016;-2.260;2023-06-10T13:30:31;31.80;78.50
59307;DHT22;47983;53.016;-2.260;2023-06-10T13:32:59;31.80;78.90
59307;DHT22;47983;53.016;-2.260;2023-06-10T13:35:27;31.90;79.40
59307;DHT22;47983;53.016;-2.260;2023-06-10T13:37:55;31.90;78.60
59307;DHT22;47983;53.016;-2.260;2023-06-10T13:40:23;31.90;79.20
59307;DHT22;47983;53.016;-2.260;2023-06-10T13:42:52;31.90;78.20
59307;DHT22;47983;53.016;-2.260;2023-06-10T13:45:22;31.80;79.00
59307;DHT22;47983;53.016;-2.260;2023-06-10T13:47:50;31.80;79.20
59307;DHT22;47983;53.016;-2.260;2023-06-10T13:50:18;31.90;79.70
59307;DHT22;47983;53.016;-2.260;2023-06-10T14:06:21;33.50;75.20
59307;DHT22;47983;53.016;-2.260;2023-06-10T14:08:50;33.40;76.10
59307;DHT22;47983;53.016;-2.260;2023-06-10T14:11:17;33.30;75.10
59307;DHT22;47983;53.016;-2.260;2023-06-10T14:13:45;33.30;75.60
59307;DHT22;47983;53.016;-2.260;2023-06-10T14:16:13;33.20;74.80
59307;DHT22;47983;53.016;-2.260;2023-06-10T14:18:40;33.10;75.00
59307;DHT22;47983;53.016;-2.260;2023-06-10T14:21:08;33.00;75.50
59307;DHT22;47983;53.016;-2.260;2023-06-10T14:23:36;32.90;75.70
59307;DHT22;47983;53.016;-2.260;2023-06-10T14:26:04;33.00;76.00
59307;DHT22;47983;53.016;-2.260;2023-06-10T14:28:33;33.10;75.10
59307;DHT22;47983;53.016;-2.260;2023-06-10T14:31:01;33.40;75.00
59307;DHT22;47983;53.016;-2.260;2023-06-10T14:33:29;33.50;73.90
59307;DHT22;47983;53.016;-2.260;2023-06-10T14:35:59;33.40;73.00
59307;DHT22;47983;53.016;-2.260;2023-06-10T14:38:27;33.40;73.00
59307;DHT22;47983;53.016;-2.260;2023-06-10T14:40:55;33.30;73.50
59307;DHT22;47983;53.016;-2.260;2023-06-10T14:43:23;33.20;73.40
59307;DHT22;47983;53.016;-2.260;2023-06-10T14:45:50;33.20;73.50
59307;DHT22;47983;53.016;-2.260;2023-06-10T14:48:18;33.00;73.20
59307;DHT22;47983;53.016;-2.260;2023-06-10T14:50:46;32.80;73.50
59307;DHT22;47983;53.016;-2.260;2023-06-10T14:53:18;32.80;73.90
59307;DHT22;47983;53.016;-2.260;2023-06-10T14:55:46;32.90;73.90
59307;DHT22;47983;53.016;-2.260;2023-06-10T14:58:14;33.00;73.20
59307;DHT22;47983;53.016;-2.260;2023-06-10T15:00:42;33.20;72.60
59307;DHT22;47983;53.016;-2.260;2023-06-10T15:03:10;33.20;72.10
59307;DHT22;47983;53.016;-2.260;2023-06-10T15:05:37;33.30;72.60
59307;DHT22;47983;53.016;-2.260;2023-06-10T15:08:05;33.40;73.60
59307;DHT22;47983;53.016;-2.260;2023-06-10T15:10:33;33.50;72.80
59307;DHT22;47983;53.016;-2.260;2023-06-10T15:13:01;33.60;72.60
59307;DHT22;47983;53.016;-2.260;2023-06-10T15:15:29;33.80;72.90
59307;DHT22;47983;53.016;-2.260;2023-06-10T15:17:57;33.90;71.80
59307;DHT22;47983;53.016;-2.260;2023-06-10T15:20:25;33.90;71.40
59307;DHT22;47983;53.016;-2.260;2023-06-10T15:22:53;34.00;71.70
59307;DHT22;47983;53.016;-2.260;2023-06-10T15:25:22;34.00;71.30
59307;DHT22;47983;53.016;-2.260;2023-06-10T15:27:52;34.10;70.70
59307;DHT22;47983;53.016;-2.260;2023-06-10T15:30:20;34.10;71.00
59307;DHT22;47983;53.016;-2.260;2023-06-10T15:32:48;34.10;70.30
59307;DHT22;47983;53.016;-2.260;2023-06-10T15:35:16;34.20;70.50
59307;DHT22;47983;53.016;-2.260;2023-06-10T15:37:44;34.00;69.50
59307;DHT22;47983;53.016;-2.260;2023-06-10T15:40:11;33.80;69.90
59307;DHT22;47983;53.016;-2.260;2023-06-10T15:42:40;33.70;70.70
59307;DHT22;47983;53.016;-2.260;2023-06-10T15:45:08;33.80;69.80
59307;DHT22;47983;53.016;-2.260;2023-06-10T15:47:36;33.90;69.00
59307;DHT22;47983;53.016;-2.260;2023-06-10T15:50:04;33.90;69.40
59307;DHT22;47983;53.016;-2.260;2023-06-10T15:52:32;34.00;69.70
59307;DHT22;47983;53.016;-2.260;2023-06-10T15:55:00;34.00;69.80
59307;DHT22;47983;53.016;-2.260;2023-06-10T15:57:28;34.10;69.80
59307;DHT22;47983;53.016;-2.260;2023-06-10T15:59:56;34.00;69.00
59307;DHT22;47983;53.016;-2.260;2023-06-10T16:02:23;34.10;69.10